Time;durP1;ratioP1;P1;durP2;ratioP2;P2;SDS_P1;SDS_P2;PMS_P1;PMS_P2;Temp;Humidity;BMP_temperature;BMP_pressure;BME280_temperature;BME280_humidity;BME280_pressure;Samples;Min_cycle;Max_cycle;Signal;HPM_P1;HPM_P2
2023/08/11 00:02:22;;;;;;;9.40;5.60;;;13.70;99.90;;;;;;5054076;28;20017;-68
2023/08/11 00:04:49;;;;;;;10.98;5.53;;;13.70;99.90;;;;;;5052435;28;20021;-68
2023/08/11 00:07:15;;;;;;;9.57;5.50;;;13.70;99.90;;;;;;5054276;28;20090;-68
2023/08/11 00:09:41;;;;;;;14.35;5.40;;;13.70;99.90;;;;;;5054028;28;20060;-68
2023/08/11 00:12:06;;;;;;;10.45;5.78;;;13.60;99.90;;;;;;5053960;28;20021;-68
2023/08/11 00:14:32;;;;;;;8.88;4.95;;;13.60;99.90;;;;;;5054209;28;20456;-68
2023/08/11 00:16:58;;;;;;;14.07;5.38;;;13.70;99.90;;;;;;5054403;28;20349;-68
2023/08/11 00:19:25;;;;;;;15.02;6.03;;;13.60;99.90;;;;;;5054165;28;20024;-68
2023/08/11 00:21:51;;;;;;;9.23;5.53;;;13.50;99.90;;;;;;5054374;28;20044;-68
2023/08/11 00:24:16;;;;;;;10.65;5.40;;;13.40;99.90;;;;;;5053737;28;20357;-68
2023/08/11 00:26:42;;;;;;;10.35;5.65;;;13.40;99.90;;;;;;5054048;28;20028;-68
2023/08/11 00:29:08;;;;;;;13.93;6.03;;;13.30;99.90;;;;;;5054256;28;20036;-68
2023/08/11 00:31:35;;;;;;;13.18;5.63;;;13.20;99.90;;;;;;5053774;28;20075;-68
2023/08/11 00:34:01;;;;;;;15.50;6.10;;;13.20;99.90;;;;;;5053629;28;20025;-68
2023/08/11 00:36:26;;;;;;;13.00;5.70;;;13.20;99.90;;;;;;5053375;28;20017;-68
2023/08/11 00:38:52;;;;;;;12.13;5.97;;;13.30;99.90;;;;;;5053653;28;20025;-68
2023/08/11 00:41:18;;;;;;;15.57;6.65;;;13.30;99.90;;;;;;5053624;28;20441;-67
2023/08/11 00:43:44;;;;;;;12.25;5.78;;;13.20;99.90;;;;;;5053810;28;20449;-68
2023/08/11 00:46:13;;;;;;;9.05;5.65;;;13.20;99.90;;;;;;5054112;28;20032;-68
2023/08/11 00:48:41;;;;;;;11.05;5.82;;;13.30;99.90;;;;;;5052012;28;20041;-69
2023/08/11 00:51:09;;;;;;;14.35;5.40;;;13.20;99.90;;;;;;5053529;28;20063;-68
2023/08/11 00:53:36;;;;;;;9.50;5.40;;;13.10;99.90;;;;;;5053507;28;20052;-69
2023/08/11 00:56:03;;;;;;;9.23;5.30;;;13.10;99.90;;;;;;5053547;28;20108;-68
2023/08/11 00:58:30;;;;;;;9.63;5.05;;;13.10;99.90;;;;;;5053868;28;20029;-68
2023/08/11 01:00:57;;;;;;;10.50;6.15;;;13.10;99.90;;;;;;5053685;28;20033;-67
2023/08/11 01:03:24;;;;;;;13.18;5.75;;;13.10;99.90;;;;;;5052894;28;20048;-68
2023/08/11 01:06:13;;;;;;;10.25;5.40;;;13.10;99.90;;;;;;5051926;28;20029;-68
2023/08/11 01:08:51;;;;;;;9.95;5.53;;;13.10;99.90;;;;;;5053656;28;20169;-68
2023/08/11 01:11:25;;;;;;;8.82;5.95;;;13.00;99.90;;;;;;5053946;28;20021;-68
2023/08/11 01:14:17;;;;;;;11.85;6.32;;;13.00;99.90;;;;;;5053645;28;20017;-68
2023/08/11 01:16:47;;;;;;;9.57;5.03;;;12.90;99.90;;;;;;5054819;28;20079;-68
2023/08/11 01:19:17;;;;;;;9.63;5.27;;;12.90;99.90;;;;;;5056847;28;20032;-68
2023/08/11 01:21:46;;;;;;;12.65;5.70;;;12.90;99.90;;;;;;5057568;28;20090;-68
2023/08/11 01:24:11;;;;;;;12.20;5.63;;;12.80;99.90;;;;;;5057441;28;20429;-68
2023/08/11 01:26:37;;;;;;;10.57;5.35;;;12.80;99.90;;;;;;5057049;28;20055;-69
2023/08/11 01:29:03;;;;;;;10.95;5.32;;;12.80;99.90;;;;;;5057006;28;20025;-69
2023/08/11 01:31:28;;;;;;;16.75;5.32;;;12.70;99.90;;;;;;5056992;28;20107;-69
2023/08/11 01:33:54;;;;;;;10.38;5.25;;;12.70;99.90;;;;;;5056253;28;20025;-69
2023/08/11 01:36:20;;;;;;;8.95;5.60;;;12.70;99.90;;;;;;5057199;28;20446;-68
2023/08/11 01:38:46;;;;;;;9.95;5.43;;;12.80;99.90;;;;;;5057082;28;20158;-68
2023/08/11 01:41:13;;;;;;;17.05;5.88;;;12.80;99.90;;;;;;5056869;28;20116;-68
2023/08/11 01:43:39;;;;;;;13.50;5.80;;;12.80;99.90;;;;;;5056790;28;20096;-69
2023/08/11 01:46:05;;;;;;;10.43;5.25;;;12.80;99.90;;;;;;5056689;28;20453;-69
2023/08/11 01:48:31;;;;;;;9.98;5.85;;;12.80;99.90;;;;;;5056384;28;20052;-69
2023/08/11 01:50:57;;;;;;;10.27;5.90;;;12.80;99.90;;;;;;5056317;28;20383;-69
2023/08/11 01:53:22;;;;;;;8.85;5.15;;;12.80;99.90;;;;;;5056579;28;20070;-69
2023/08/11 01:55:50;;;;;;;11.25;5.45;;;12.70;99.90;;;;;;5056527;28;20028;-69
2023/08/11 01:58:16;;;;;;;12.27;5.63;;;12.70;99.90;;;;;;5056738;28;20036;-69
2023/08/11 02:00:41;;;;;;;10.80;5.60;;;12.60;99.90;;;;;;5056421;28;20025;-69
2023/08/11 02:03:07;;;;;;;13.35;5.63;;;12.70;99.90;;;;;;5056658;28;20412;-68
2023/08/11 02:05:33;;;;;;;10.23;4.95;;;12.60;99.90;;;;;;5056597;28;20052;-68
2023/08/11 02:07:59;;;;;;;8.27;4.93;;;12.60;99.90;;;;;;5056257;28;20056;-69
2023/08/11 02:10:25;;;;;;;11.98;5.22;;;12.50;99.90;;;;;;5056210;28;20035;-69
2023/08/11 02:12:51;;;;;;;12.00;5.10;;;12.50;99.90;;;;;;5056425;28;20021;-69
2023/08/11 02:15:16;;;;;;;8.88;4.95;;;12.50;99.90;;;;;;5056166;28;20021;-69
2023/08/11 02:17:42;;;;;;;8.13;4.88;;;12.40;99.90;;;;;;5056044;28;20029;-69
2023/08/11 02:20:19;;;;;;;9.07;5.43;;;12.40;99.90;;;;;;5056311;28;20033;-69
2023/08/11 02:22:45;;;;;;;11.32;5.25;;;12.40;99.90;;;;;;5056338;28;20043;-69
2023/08/11 02:25:11;;;;;;;7.70;5.28;;;12.40;99.90;;;;;;5055954;28;20453;-69
2023/08/11 02:27:36;;;;;;;9.05;4.93;;;12.40;99.90;;;;;;5055664;28;20017;-69
2023/08/11 02:30:05;;;;;;;12.57;6.40;;;12.40;99.90;;;;;;5056154;28;20032;-69
2023/08/11 02:32:31;;;;;;;9.63;4.70;;;12.40;99.90;;;;;;5055049;28;20389;-69
2023/08/11 02:34:56;;;;;;;8.43;5.18;;;12.40;99.90;;;;;;5055580;28;20112;-69
2023/08/11 02:37:22;;;;;;;8.27;5.13;;;12.40;99.90;;;;;;5054485;28;20462;-69
2023/08/11 02:39:47;;;;;;;7.35;4.60;;;12.40;99.90;;;;;;5055620;28;20029;-69
2023/08/11 02:42:13;;;;;;;7.53;4.90;;;12.30;99.90;;;;;;5055582;28;20021;-69
2023/08/11 02:44:39;;;;;;;8.00;4.72;;;12.30;99.90;;;;;;5055572;28;20469;-69
2023/08/11 02:47:05;;;;;;;9.88;4.70;;;12.20;99.90;;;;;;5056269;28;20040;-69
2023/08/11 02:49:30;;;;;;;8.90;4.60;;;12.20;99.90;;;;;;5055720;28;20053;-69
2023/08/11 02:51:56;;;;;;;8.52;5.10;;;12.10;99.90;;;;;;5055414;28;20033;-69
2023/08/11 02:54:22;;;;;;;11.32;5.20;;;12.10;99.90;;;;;;5055424;28;20053;-68
2023/08/11 02:56:48;;;;;;;8.30;4.55;;;12.10;99.90;;;;;;5055641;28;20445;-68
2023/08/11 02:59:13;;;;;;;6.95;4.45;;;12.20;99.90;;;;;;5055274;28;20036;-69
2023/08/11 03:01:40;;;;;;;7.85;4.78;;;12.20;99.90;;;;;;5055246;28;20025;-68
2023/08/11 03:04:06;;;;;;;11.27;5.25;;;12.20;99.90;;;;;;5055460;28;20056;-69
2023/08/11 03:06:31;;;;;;;8.27;4.72;;;12.20;99.90;;;;;;5054926;28;20028;-69
2023/08/11 03:08:57;;;;;;;10.77;4.85;;;12.20;99.90;;;;;;5055197;28;20028;-68
2023/08/11 03:11:22;;;;;;;8.45;4.75;;;12.20;99.90;;;;;;5055086;28;20437;-69
2023/08/11 03:13:48;;;;;;;11.85;4.97;;;12.10;99.90;;;;;;5054794;28;20032;-68
2023/08/11 03:16:14;;;;;;;12.15;5.38;;;12.00;99.90;;;;;;5055086;28;20013;-69
2023/08/11 03:18:40;;;;;;;11.75;5.07;;;11.90;99.90;;;;;;5055404;28;20025;-69
2023/08/11 03:21:05;;;;;;;10.68;5.03;;;11.80;99.90;;;;;;5054686;28;20037;-68
2023/08/11 03:23:31;;;;;;;16.23;5.43;;;11.90;99.90;;;;;;5054096;28;20380;-68
2023/08/11 03:25:57;;;;;;;10.57;4.60;;;11.80;99.90;;;;;;5055244;28;20048;-68
2023/08/11 03:28:22;;;;;;;9.85;5.45;;;11.80;99.90;;;;;;5054705;28;20055;-69
2023/08/11 03:30:48;;;;;;;11.85;5.72;;;11.80;99.90;;;;;;5054991;28;20036;-69
2023/08/11 03:33:13;;;;;;;7.93;5.05;;;11.80;99.90;;;;;;5054868;28;20024;-69
2023/08/11 03:35:39;;;;;;;9.60;5.18;;;11.80;99.90;;;;;;5053321;28;20053;-69
2023/08/11 03:38:05;;;;;;;10.20;5.22;;;11.80;99.90;;;;;;5054207;28;20068;-69
2023/08/11 03:40:32;;;;;;;10.48;4.95;;;11.80;99.90;;;;;;5053856;28;20031;-69
2023/08/11 03:42:58;;;;;;;9.85;4.95;;;11.70;99.90;;;;;;5054521;28;20021;-68
2023/08/11 03:45:24;;;;;;;9.18;5.10;;;11.80;99.90;;;;;;5054713;28;20350;-69
2023/08/11 03:47:49;;;;;;;10.30;5.30;;;11.90;99.90;;;;;;5054169;28;20040;-69
2023/08/11 03:50:15;;;;;;;8.35;4.88;;;11.80;99.90;;;;;;5055032;28;20056;-69
2023/08/11 03:52:41;;;;;;;12.65;4.80;;;11.90;99.90;;;;;;5054826;28;20024;-69
2023/08/11 03:55:09;;;;;;;8.30;4.60;;;11.90;99.90;;;;;;5054252;28;20356;-72
2023/08/11 03:57:37;;;;;;;9.43;4.90;;;11.90;99.90;;;;;;5054543;28;20021;-71
2023/08/11 04:00:05;;;;;;;7.93;5.05;;;11.90;99.90;;;;;;5054120;28;20056;-72
2023/08/11 04:02:31;;;;;;;7.63;4.50;;;11.90;99.90;;;;;;5054089;28;20466;-71
2023/08/11 04:04:57;;;;;;;11.88;5.30;;;11.80;99.90;;;;;;5052776;28;20027;-71
2023/08/11 04:07:22;;;;;;;15.77;5.13;;;11.90;99.90;;;;;;5053956;28;20025;-71
2023/08/11 04:09:48;;;;;;;14.45;5.55;;;11.90;99.90;;;;;;5053975;28;20029;-70
2023/08/11 04:12:14;;;;;;;8.75;4.90;;;11.80;99.90;;;;;;5053930;28;20051;-71
2023/08/11 04:14:40;;;;;;;10.32;5.38;;;11.80;99.90;;;;;;5053918;28;20468;-71
2023/08/11 04:17:07;;;;;;;13.38;5.45;;;11.70;99.90;;;;;;5053827;28;20488;-71
2023/08/11 04:19:32;;;;;;;11.10;5.32;;;11.70;99.90;;;;;;5054038;28;20075;-71
2023/08/11 04:21:59;;;;;;;9.05;5.05;;;11.60;99.90;;;;;;5053956;28;20029;-70
2023/08/11 04:24:25;;;;;;;17.77;5.05;;;11.60;99.90;;;;;;5053749;28;20021;-70
2023/08/11 04:26:51;;;;;;;10.43;4.82;;;11.60;99.90;;;;;;5053669;28;20461;-70
2023/08/11 04:29:17;;;;;;;8.80;4.90;;;11.60;99.90;;;;;;5054091;28;20056;-69
2023/08/11 04:31:42;;;;;;;10.02;4.70;;;11.60;99.90;;;;;;5053873;28;20029;-70
2023/08/11 04:34:10;;;;;;;11.32;5.00;;;11.70;99.90;;;;;;5054080;28;20028;-68
2023/08/11 04:36:35;;;;;;;8.93;5.30;;;11.70;99.90;;;;;;5053734;28;20039;-68
2023/08/11 04:39:01;;;;;;;10.30;4.85;;;11.70;99.90;;;;;;5053449;28;20028;-69
2023/08/11 04:41:27;;;;;;;11.93;5.03;;;11.70;99.90;;;;;;5053750;28;20098;-69
2023/08/11 04:43:52;;;;;;;11.55;5.75;;;11.80;99.90;;;;;;5053419;28;20059;-69
2023/08/11 04:46:18;;;;;;;10.57;5.32;;;11.90;99.90;;;;;;5053459;28;20302;-71
2023/08/11 04:48:44;;;;;;;8.95;5.05;;;12.00;99.90;;;;;;5053095;28;20036;-70
2023/08/11 04:51:09;;;;;;;10.27;5.07;;;12.00;99.90;;;;;;5055123;28;20039;-71
2023/08/11 04:53:35;;;;;;;8.98;5.10;;;12.10;99.90;;;;;;5057531;28;20027;-71
2023/08/11 04:56:01;;;;;;;9.82;4.40;;;12.10;99.90;;;;;;5057763;28;20446;-71
2023/08/11 04:58:26;;;;;;;10.30;4.60;;;12.20;99.90;;;;;;5057346;28;20025;-68
2023/08/11 05:00:52;;;;;;;6.97;4.22;;;12.30;99.90;;;;;;5056546;28;20029;-68
2023/08/11 05:03:19;;;;;;;7.85;4.10;;;12.50;99.90;;;;;;5057349;28;20467;-68
2023/08/11 05:05:45;;;;;;;8.02;4.35;;;12.60;99.90;;;;;;5057279;28;20025;-68
2023/08/11 05:08:10;;;;;;;7.10;4.35;;;12.70;99.90;;;;;;5057262;28;20021;-67
2023/08/11 05:10:36;;;;;;;9.13;4.50;;;12.80;99.90;;;;;;5057830;28;20025;-70
2023/08/11 05:13:02;;;;;;;7.70;4.68;;;12.90;99.90;;;;;;5057223;28;20469;-70
2023/08/11 05:15:27;;;;;;;12.90;4.65;;;13.00;99.90;;;;;;5057177;28;20024;-70
2023/08/11 05:17:53;;;;;;;7.93;4.28;;;13.00;99.90;;;;;;5056855;28;20028;-71
2023/08/11 05:20:19;;;;;;;11.15;4.43;;;13.10;99.90;;;;;;5057568;28;20059;-70
2023/08/11 05:22:44;;;;;;;7.65;4.47;;;13.20;99.90;;;;;;5055769;28;20044;-70
2023/08/11 05:25:10;;;;;;;10.35;4.38;;;13.30;99.90;;;;;;5056793;28;20029;-68
2023/08/11 05:27:36;;;;;;;10.95;4.63;;;13.30;99.90;;;;;;5056990;28;20349;-70
2023/08/11 05:30:02;;;;;;;11.75;4.60;;;13.30;99.90;;;;;;5056916;28;20043;-66
2023/08/11 05:32:28;;;;;;;10.73;4.70;;;13.10;99.90;;;;;;5056877;28;20028;-68
2023/08/11 05:34:55;;;;;;;7.93;4.22;;;13.00;99.90;;;;;;5057475;28;20337;-68
2023/08/11 05:37:24;;;;;;;7.93;4.10;;;13.10;99.90;;;;;;5057243;28;20460;-70
2023/08/11 05:39:51;;;;;;;11.05;4.85;;;13.30;99.90;;;;;;5056507;28;20087;-69
2023/08/11 05:42:18;;;;;;;7.32;4.18;;;13.40;99.90;;;;;;5056604;28;20029;-69
2023/08/11 05:44:43;;;;;;;9.95;4.82;;;13.70;99.90;;;;;;5056580;28;20052;-68
2023/08/11 05:47:09;;;;;;;8.18;4.82;;;13.80;99.90;;;;;;5056443;28;20064;-69
2023/08/11 05:49:35;;;;;;;9.88;4.75;;;13.70;99.90;;;;;;5056635;28;20056;-70
2023/08/11 05:52:00;;;;;;;9.02;5.70;;;13.60;99.90;;;;;;5056708;28;20025;-70
2023/08/11 05:54:26;;;;;;;9.30;4.70;;;13.80;99.90;;;;;;5056364;28;20017;-71
2023/08/11 05:56:54;;;;;;;8.00;5.18;;;13.80;99.90;;;;;;5056056;28;20457;-71
2023/08/11 05:59:21;;;;;;;9.40;5.20;;;13.90;99.90;;;;;;5056283;28;20024;-71
2023/08/11 06:01:47;;;;;;;8.77;5.45;;;14.00;99.90;;;;;;5056083;28;20032;-69
2023/08/11 06:04:12;;;;;;;11.00;5.38;;;14.10;99.90;;;;;;5055906;28;20120;-70
2023/08/11 06:06:38;;;;;;;10.48;5.45;;;14.20;99.90;;;;;;5056659;28;20032;-70
2023/08/11 06:09:04;;;;;;;18.05;5.75;;;14.20;99.90;;;;;;5056132;28;20036;-70
2023/08/11 06:11:30;;;;;;;12.80;5.25;;;14.30;99.90;;;;;;5056047;28;20021;-71
2023/08/11 06:13:56;;;;;;;10.32;6.25;;;14.40;99.90;;;;;;5055955;28;20100;-70
2023/08/11 06:16:22;;;;;;;11.95;5.28;;;14.50;99.90;;;;;;5056338;28;20024;-70
2023/08/11 06:18:47;;;;;;;11.38;5.90;;;14.60;99.90;;;;;;5055974;28;20465;-71
2023/08/11 06:21:13;;;;;;;12.32;5.68;;;14.80;99.90;;;;;;5055921;28;20043;-71
2023/08/11 06:23:39;;;;;;;7.72;4.97;;;15.00;99.90;;;;;;5055806;28;20412;-71
2023/08/11 06:26:04;;;;;;;9.10;5.60;;;15.10;99.90;;;;;;5055834;28;20060;-72
2023/08/11 06:28:30;;;;;;;11.55;5.50;;;15.30;99.90;;;;;;5055704;28;20518;-71
2023/08/11 06:30:56;;;;;;;11.77;5.20;;;15.40;99.90;;;;;;5055781;28;20134;-71
2023/08/11 06:33:21;;;;;;;13.05;5.45;;;15.60;99.90;;;;;;5055455;28;20130;-71
2023/08/11 06:35:47;;;;;;;12.20;4.70;;;15.80;99.90;;;;;;5055697;28;20025;-71
2023/08/11 06:38:13;;;;;;;9.90;5.43;;;16.10;99.90;;;;;;5055724;28;20025;-71
2023/08/11 06:40:39;;;;;;;10.13;4.75;;;16.30;99.90;;;;;;5054269;28;20021;-71
2023/08/11 06:43:06;;;;;;;9.82;4.90;;;16.50;99.90;;;;;;5055480;28;20024;-72
2023/08/11 06:45:32;;;;;;;10.57;5.00;;;16.60;99.90;;;;;;5055402;28;20100;-72
2023/08/11 06:47:58;;;;;;;10.27;5.03;;;16.70;99.90;;;;;;5055153;28;20118;-71
2023/08/11 06:50:24;;;;;;;11.73;4.88;;;16.70;99.90;;;;;;5055767;28;20127;-71
2023/08/11 06:52:50;;;;;;;7.82;4.43;;;16.80;99.90;;;;;;5055647;28;20048;-70
2023/08/11 06:55:16;;;;;;;7.72;4.85;;;16.90;99.90;;;;;;5055268;28;20036;-72
2023/08/11 06:57:41;;;;;;;13.43;4.88;;;17.00;99.90;;;;;;5055176;28;20029;-70
2023/08/11 07:00:07;;;;;;;9.05;5.53;;;17.30;99.90;;;;;;5055203;28;20025;-70
2023/08/11 07:02:34;;;;;;;10.23;5.15;;;17.50;99.90;;;;;;5055052;28;20056;-69
2023/08/11 07:05:01;;;;;;;9.25;4.43;;;17.80;99.90;;;;;;5055151;28;20021;-70
2023/08/11 07:07:26;;;;;;;7.00;4.47;;;18.00;99.90;;;;;;5055334;28;20103;-70
2023/08/11 07:09:52;;;;;;;16.63;6.20;;;18.30;99.90;;;;;;5055256;28;20097;-70
2023/08/11 07:12:18;;;;;;;7.13;4.82;;;18.50;99.90;;;;;;5055052;28;20024;-71
2023/08/11 07:14:43;;;;;;;10.98;4.53;;;18.70;99.90;;;;;;5054269;28;20025;-70
2023/08/11 07:17:10;;;;;;;9.50;4.65;;;18.90;99.90;;;;;;5054928;28;20025;-70
2023/08/11 07:19:36;;;;;;;9.52;4.90;;;19.10;99.90;;;;;;5054803;28;20076;-72
2023/08/11 07:22:02;;;;;;;6.88;4.60;;;19.20;99.90;;;;;;5055110;28;20029;-71
2023/08/11 07:24:27;;;;;;;8.27;4.43;;;19.40;99.90;;;;;;5054801;28;20390;-70
2023/08/11 07:26:53;;;;;;;10.13;4.60;;;19.70;99.90;;;;;;5054695;28;20021;-69
2023/08/11 07:29:19;;;;;;;7.60;3.97;;;19.90;99.90;;;;;;5054718;28;20025;-71
2023/08/11 07:31:45;;;;;;;9.13;4.07;;;20.00;99.90;;;;;;5054938;28;20394;-71
2023/08/11 07:34:10;;;;;;;9.40;4.40;;;20.10;99.90;;;;;;5055014;28;20025;-71
2023/08/11 07:36:37;;;;;;;6.25;4.20;;;20.30;99.90;;;;;;5054569;28;20032;-70
2023/08/11 07:39:03;;;;;;;7.18;3.88;;;20.50;99.90;;;;;;5054482;28;20106;-69
2023/08/11 07:41:29;;;;;;;6.40;4.38;;;20.60;99.90;;;;;;5054417;28;20033;-70
2023/08/11 07:43:55;;;;;;;10.55;4.22;;;20.90;99.90;;;;;;5054503;28;20021;-68
2023/08/11 07:46:20;;;;;;;6.82;3.97;;;21.00;99.90;;;;;;5054410;28;20028;-68
2023/08/11 07:48:46;;;;;;;6.75;4.03;;;21.20;99.90;;;;;;5053663;28;20462;-68
2023/08/11 07:51:14;;;;;;;7.43;3.80;;;21.40;99.90;;;;;;5054578;28;20036;-68
2023/08/11 07:53:39;;;;;;;5.25;3.67;;;21.60;99.90;;;;;;5054450;28;20438;-69
2023/08/11 07:56:05;;;;;;;6.65;3.85;;;21.80;99.90;;;;;;5054129;28;20032;-69
2023/08/11 07:58:31;;;;;;;14.82;4.32;;;21.90;99.90;;;;;;5054378;28;20064;-69
2023/08/11 08:00:57;;;;;;;7.07;3.90;;;22.00;99.90;;;;;;5054061;28;20079;-70
2023/08/11 08:03:25;;;;;;;9.82;4.35;;;22.10;99.90;;;;;;5054349;28;20024;-69
2023/08/11 08:05:50;;;;;;;6.75;3.80;;;22.20;99.90;;;;;;5054030;28;20491;-70
2023/08/11 08:08:16;;;;;;;6.90;4.07;;;22.40;99.90;;;;;;5053985;28;20107;-71
2023/08/11 08:10:43;;;;;;;5.47;3.70;;;22.40;99.90;;;;;;5053899;28;20408;-70
2023/08/11 08:13:08;;;;;;;5.50;3.50;;;22.50;99.90;;;;;;5054220;28;20078;-69
2023/08/11 08:15:38;;;;;;;6.30;3.60;;;22.60;99.90;;;;;;5054377;28;20032;-68
2023/08/11 08:18:04;;;;;;;7.32;4.10;;;22.70;99.90;;;;;;5053890;28;20047;-69
2023/08/11 08:20:31;;;;;;;9.85;3.92;;;22.80;99.90;;;;;;5053972;28;20029;-69
2023/08/11 08:22:57;;;;;;;6.57;3.45;;;22.90;99.90;;;;;;5054291;28;20025;-70
2023/08/11 08:25:23;;;;;;;5.53;3.63;;;23.00;99.90;;;;;;5053479;28;20335;-69
2023/08/11 08:27:49;;;;;;;5.20;3.47;;;23.10;99.90;;;;;;5053704;28;20021;-68
2023/08/11 08:30:15;;;;;;;5.38;3.08;;;23.20;99.90;;;;;;5053707;28;20464;-69
2023/08/11 08:32:41;;;;;;;4.97;3.55;;;23.40;99.90;;;;;;5053858;28;20029;-69
2023/08/11 08:35:09;;;;;;;7.88;3.40;;;23.50;99.90;;;;;;5054435;28;20074;-70
2023/08/11 08:37:35;;;;;;;5.07;2.95;;;23.60;99.90;;;;;;5053432;28;20103;-69
2023/08/11 08:40:01;;;;;;;3.75;2.90;;;23.70;99.90;;;;;;5053667;28;20051;-69
2023/08/11 08:42:28;;;;;;;4.53;2.80;;;23.80;99.90;;;;;;5053565;28;20021;-69
2023/08/11 08:44:54;;;;;;;7.07;2.83;;;24.00;99.90;;;;;;5053526;28;20514;-69
2023/08/11 08:47:22;;;;;;;5.30;3.17;;;24.20;99.90;;;;;;5053112;28;20453;-69
2023/08/11 08:49:49;;;;;;;5.45;3.40;;;24.20;99.90;;;;;;5053060;28;20400;-69
2023/08/11 08:52:15;;;;;;;4.82;3.20;;;24.10;99.90;;;;;;5053719;28;20021;-70
2023/08/11 08:54:42;;;;;;;5.50;3.15;;;24.00;99.90;;;;;;5053391;28;20029;-70
2023/08/11 08:57:10;;;;;;;5.57;3.28;;;23.90;99.90;;;;;;5053184;28;20024;-70
2023/08/11 08:59:39;;;;;;;5.57;3.33;;;23.90;99.90;;;;;;5053173;28;20069;-69
2023/08/11 09:02:06;;;;;;;4.70;3.30;;;24.00;99.90;;;;;;5053342;28;20067;-68
2023/08/11 09:04:33;;;;;;;4.43;3.35;;;24.20;99.90;;;;;;5053335;28;20021;-69
2023/08/11 09:07:00;;;;;;;8.48;3.60;;;24.10;99.90;;;;;;5053336;28;20025;-69
2023/08/11 09:09:27;;;;;;;5.38;2.90;;;24.20;99.90;;;;;;5053459;28;20434;-69
2023/08/11 09:11:54;;;;;;;5.18;3.08;;;24.40;99.90;;;;;;5053356;28;20465;-71
2023/08/11 09:14:21;;;;;;;4.95;3.25;;;24.50;99.90;;;;;;5053099;28;20021;-70
2023/08/11 09:16:48;;;;;;;5.25;3.47;;;24.70;99.90;;;;;;5053156;28;20441;-70
2023/08/11 09:19:15;;;;;;;9.80;3.72;;;24.80;99.90;;;;;;5053569;28;20086;-71
2023/08/11 09:21:44;;;;;;;4.00;3.22;;;24.90;99.90;;;;;;5053136;28;20021;-71
2023/08/11 09:24:12;;;;;;;7.72;3.00;;;25.00;99.90;;;;;;5053627;28;20059;-71
2023/08/11 09:26:43;;;;;;;5.90;3.38;;;25.00;99.90;;;;;;5053094;28;20013;-70
2023/08/11 09:29:10;;;;;;;5.22;3.67;;;25.00;99.90;;;;;;5053151;28;20063;-71
2023/08/11 09:31:37;;;;;;;5.28;3.60;;;25.20;99.90;;;;;;5053315;28;20096;-70
2023/08/11 09:34:12;;;;;;;4.75;3.42;;;25.20;99.90;;;;;;5052911;28;20021;-71
2023/08/11 09:36:38;;;;;;;9.10;3.95;;;25.40;99.90;;;;;;5053157;28;20053;-70
2023/08/11 09:39:13;;;;;;;7.63;3.92;;;25.40;99.90;;;;;;5055894;28;20025;-70
2023/08/11 09:41:43;;;;;;;4.88;3.78;;;25.50;99.90;;;;;;5057114;28;20029;-70
2023/08/11 09:44:19;;;;;;;5.63;4.00;;;25.60;99.90;;;;;;5056810;28;20021;-72
2023/08/11 09:46:48;;;;;;;8.63;3.70;;;25.60;99.90;;;;;;5056587;28;20604;-69
2023/08/11 09:49:14;;;;;;;7.73;3.70;;;25.80;99.90;;;;;;5056239;28;20118;-69
2023/08/11 09:51:41;;;;;;;7.43;3.60;;;25.90;99.90;;;;;;5056455;28;20063;-70
2023/08/11 09:54:10;;;;;;;5.85;3.67;;;25.90;99.90;;;;;;5056520;28;20060;-70
2023/08/11 09:56:45;;;;;;;9.07;3.78;;;26.00;99.90;;;;;;5056748;28;20020;-69
2023/08/11 09:59:17;;;;;;;4.75;3.58;;;26.00;99.90;;;;;;5056472;28;20067;-69
2023/08/11 10:01:46;;;;;;;7.75;3.47;;;26.30;99.90;;;;;;5056752;28;20087;-70
2023/08/11 10:04:28;;;;;;;7.28;3.90;;;26.20;99.90;;;;;;5056791;28;20468;-70
2023/08/11 10:06:58;;;;;;;5.93;3.70;;;26.30;99.90;;;;;;5058171;28;20028;-71
2023/08/11 10:09:25;;;;;;;5.35;3.67;;;26.60;99.90;;;;;;5062457;28;20021;-70
2023/08/11 10:11:52;;;;;;;5.45;3.90;;;26.80;99.90;;;;;;5058818;28;20021;-71
2023/08/11 10:14:20;;;;;;;6.43;3.97;;;26.60;99.90;;;;;;5059413;28;20017;-70
2023/08/11 10:16:46;;;;;;;6.70;3.78;;;26.70;99.90;;;;;;5060073;28;20075;-68
2023/08/11 10:19:13;;;;;;;9.82;3.95;;;26.90;99.90;;;;;;5059155;28;20029;-69
2023/08/11 10:21:40;;;;;;;6.03;3.95;;;26.90;99.90;;;;;;5056142;28;20063;-70
2023/08/11 10:24:06;;;;;;;5.53;3.80;;;26.90;99.90;;;;;;5055980;28;20128;-69
2023/08/11 10:26:33;;;;;;;5.93;3.88;;;26.90;99.90;;;;;;5056515;28;20028;-70
2023/08/11 10:28:59;;;;;;;10.00;4.00;;;27.00;99.90;;;;;;5055865;28;20025;-70
2023/08/11 10:31:25;;;;;;;6.35;4.28;;;27.00;99.90;;;;;;5056378;28;20032;-71
2023/08/11 10:33:53;;;;;;;8.15;3.72;;;27.20;99.90;;;;;;5055174;28;20021;-71
2023/08/11 10:36:23;;;;;;;5.53;3.95;;;27.30;99.60;;;;;;5055532;28;20044;-69
2023/08/11 10:39:05;;;;;;;;;;;27.30;99.90;;;;;;5055605;28;20545;-69
2023/08/11 10:41:31;;;;;;;6.05;4.25;;;27.10;99.90;;;;;;5055662;28;19909;-70
2023/08/11 10:43:58;;;;;;;5.07;3.40;;;26.90;99.90;;;;;;5055505;28;20068;-70
2023/08/11 10:46:26;;;;;;;4.78;3.53;;;26.90;99.90;;;;;;5055542;28;20021;-69
2023/08/11 10:48:59;;;;;;;8.13;3.70;;;27.00;99.90;;;;;;5055917;28;20045;-70
2023/08/11 10:51:36;;;;;;;5.85;3.40;;;27.20;99.10;;;;;;5055866;28;20021;-70
2023/08/11 10:54:02;;;;;;;6.22;4.00;;;27.70;98.70;;;;;;5055504;28;20095;-69
2023/08/11 10:56:31;;;;;;;6.82;4.00;;;27.50;99.90;;;;;;5055583;28;20020;-69
2023/08/11 10:59:05;;;;;;;7.80;4.05;;;27.40;99.90;;;;;;5055388;28;20031;-68
2023/08/11 11:01:34;;;;;;;5.00;3.90;;;27.40;99.60;;;;;;5055501;28;20108;-70
2023/08/11 11:04:01;;;;;;;5.82;3.83;;;27.40;98.50;;;;;;5055276;28;20035;-69
2023/08/11 11:06:27;;;;;;;6.75;3.90;;;27.70;99.90;;;;;;5055360;28;20028;-70
2023/08/11 11:08:52;;;;;;;5.53;3.85;;;28.00;99.90;;;;;;5055108;28;20396;-70
2023/08/11 11:11:18;;;;;;;7.78;4.28;;;28.30;99.90;;;;;;5055149;28;20017;-69
2023/08/11 11:13:43;;;;;;;6.80;4.50;;;28.60;99.90;;;;;;5054972;28;20013;-69
2023/08/11 11:16:09;;;;;;;6.20;4.07;;;28.60;99.90;;;;;;5054947;28;20025;-68
2023/08/11 11:18:35;;;;;;;20.73;4.55;;;28.60;99.90;;;;;;5055692;28;20036;-68
2023/08/11 11:21:00;;;;;;;4.68;3.85;;;28.70;99.90;;;;;;5054810;28;20037;-68
2023/08/11 11:23:26;;;;;;;5.93;4.10;;;28.70;98.60;;;;;;5055144;28;20113;-69
2023/08/11 11:25:51;;;;;;;6.30;4.05;;;28.80;99.90;;;;;;5054998;28;20013;-69
2023/08/11 11:28:17;;;;;;;7.90;3.70;;;28.90;97.30;;;;;;5055024;28;20032;-70
2023/08/11 11:30:43;;;;;;;5.88;4.30;;;28.70;99.30;;;;;;5054389;28;20028;-69
2023/08/11 11:33:08;;;;;;;4.30;3.33;;;28.80;98.00;;;;;;5054620;28;20032;-69
2023/08/11 11:35:34;;;;;;;7.78;3.35;;;28.80;98.30;;;;;;5054615;28;20446;-69
2023/08/11 11:38:00;;;;;;;8.35;3.92;;;28.80;97.80;;;;;;5054551;28;20432;-69
2023/08/11 11:40:28;;;;;;;6.93;3.47;;;28.60;98.60;;;;;;5054220;28;20029;-68
2023/08/11 11:42:53;;;;;;;4.53;3.42;;;28.70;96.60;;;;;;5054164;28;20021;-68
2023/08/11 11:45:20;;;;;;;6.45;4.40;;;28.60;97.90;;;;;;5054366;28;20032;-70
2023/08/11 11:47:47;;;;;;;5.63;3.80;;;28.50;98.50;;;;;;5054636;28;20040;-68
2023/08/11 11:50:12;;;;;;;6.05;3.63;;;28.30;97.40;;;;;;5054988;28;20198;-69
2023/08/11 11:52:42;;;;;;;5.05;3.75;;;28.40;97.80;;;;;;5054354;28;20028;-68
2023/08/11 11:55:08;;;;;;;;;;;28.30;98.30;;;;;;5055163;28;20041;-69
2023/08/11 11:57:34;;;;;;;7.95;4.20;;;28.40;96.40;;;;;;5054477;28;19901;-70
2023/08/11 11:59:59;;;;;;;8.00;3.58;;;28.70;96.30;;;;;;5053934;28;20072;-69
2023/08/11 12:02:26;;;;;;;10.98;3.65;;;28.90;97.60;;;;;;5053857;28;20665;-68
2023/08/11 12:04:51;;;;;;;4.03;3.22;;;29.20;96.80;;;;;;5054129;28;20021;-70
2023/08/11 12:07:33;;;;;;;5.40;3.55;;;29.40;95.80;;;;;;5054279;28;20027;-68
2023/08/11 12:10:00;;;;;;;6.10;3.72;;;29.60;96.10;;;;;;5053961;28;20468;-69
2023/08/11 12:12:27;;;;;;;6.63;4.00;;;29.50;97.90;;;;;;5054013;28;20025;-69
2023/08/11 12:14:53;;;;;;;7.47;3.58;;;29.10;96.60;;;;;;5054020;28;20099;-69
2023/08/11 12:17:21;;;;;;;8.50;3.60;;;28.90;95.40;;;;;;5053564;28;20028;-69
2023/08/11 12:19:47;;;;;;;5.18;3.60;;;29.00;95.70;;;;;;5053744;28;20037;-70
2023/08/11 12:22:13;;;;;;;5.57;3.83;;;29.50;97.30;;;;;;5053980;28;20021;-68
2023/08/11 12:24:39;;;;;;;6.32;3.75;;;30.00;96.20;;;;;;5052991;28;20020;-68
2023/08/11 12:27:05;;;;;;;4.28;3.25;;;30.00;95.30;;;;;;5054092;28;20074;-68
2023/08/11 12:29:31;;;;;;;4.90;3.28;;;29.50;94.70;;;;;;5053444;28;20418;-69
2023/08/11 12:31:57;;;;;;;6.18;3.47;;;29.40;95.50;;;;;;5053439;28;20023;-69
2023/08/11 12:34:23;;;;;;;5.38;3.30;;;29.70;96.80;;;;;;5054493;28;20065;-69
2023/08/11 12:36:49;;;;;;;9.30;3.78;;;30.20;96.80;;;;;;5053664;28;20025;-69
2023/08/11 12:39:15;;;;;;;4.65;3.47;;;30.50;94.50;;;;;;5054056;28;20028;-69
2023/08/11 12:41:41;;;;;;;5.88;3.20;;;30.70;93.70;;;;;;5053467;28;20359;-69